Time;durP1;ratioP1;P1;durP2;ratioP2;P2;SDS_P1;SDS_P2;PMS_P1;PMS_P2;Temp;Humidity;BMP_temperature;BMP_pressure;BME280_temperature;BME280_humidity;BME280_pressure;Samples;Min_cycle;Max_cycle;Signal;HPM_P1;HPM_P2
2022/08/25 00:01:43;;;;;;;0.63;0.50;;;15.30;99.90;;;;;;5113590;28;20044;-78
2022/08/25 00:04:12;;;;;;;0.70;0.47;;;15.30;99.90;;;;;;5109485;28;20035;-74
2022/08/25 00:06:39;;;;;;;0.50;0.50;;;15.20;99.90;;;;;;5114017;28;20023;-74
2022/08/25 00:09:05;;;;;;;0.50;0.50;;;15.20;99.90;;;;;;5113889;28;20023;-74
2022/08/25 00:11:33;;;;;;;0.63;0.40;;;15.20;99.90;;;;;;5114023;28;20365;-76
2022/08/25 00:14:04;;;;;;;0.60;0.60;;;15.20;99.90;;;;;;5095638;28;20026;-77
2022/08/25 00:16:30;;;;;;;1.00;0.77;;;15.30;99.90;;;;;;5113729;28;20024;-77
2022/08/25 00:18:59;;;;;;;0.47;0.47;;;15.30;99.90;;;;;;5113722;28;20019;-77
2022/08/25 00:21:26;;;;;;;0.30;0.30;;;15.30;99.90;;;;;;5095587;28;20088;-78
2022/08/25 00:23:52;;;;;;;0.77;0.52;;;15.30;99.90;;;;;;5095276;28;20028;-78
2022/08/25 00:26:19;;;;;;;1.00;0.88;;;15.30;99.90;;;;;;5094986;28;20031;-75
2022/08/25 00:28:45;;;;;;;0.90;0.43;;;;;;;;;;5113642;28;20478;-76
2022/08/25 00:31:17;;;;;;;0.75;0.70;;;15.20;99.90;;;;;;5113876;28;20024;-75
2022/08/25 00:33:45;;;;;;;0.52;0.52;;;15.20;99.90;;;;;;5113960;28;20156;-77
2022/08/25 00:36:11;;;;;;;0.38;0.38;;;15.10;99.90;;;;;;5113798;28;20024;-74
2022/08/25 00:38:41;;;;;;;0.40;0.40;;;15.20;99.90;;;;;;5113876;28;20077;-76
2022/08/25 00:41:09;;;;;;;0.60;0.60;;;15.20;99.90;;;;;;5095377;28;20597;-75
2022/08/25 00:43:45;;;;;;;1.15;0.73;;;15.20;99.90;;;;;;5095441;28;20396;-74
2022/08/25 00:46:21;;;;;;;1.05;0.43;;;15.20;99.90;;;;;;5099117;28;20030;-78
2022/08/25 00:48:53;;;;;;;1.13;0.80;;;15.20;99.90;;;;;;5117311;28;20020;-75
2022/08/25 00:51:26;;;;;;;0.80;0.80;;;15.20;99.90;;;;;;5098978;28;20019;-74
2022/08/25 00:53:52;;;;;;;2.92;0.60;;;15.10;99.90;;;;;;5098979;28;20075;-75
2022/08/25 00:56:18;;;;;;;1.45;0.80;;;15.00;99.90;;;;;;5117116;28;20027;-78
2022/08/25 00:58:44;;;;;;;1.85;0.40;;;15.00;99.90;;;;;;5116775;28;20070;-75
2022/08/25 01:01:09;;;;;;;1.00;1.00;;;14.90;99.90;;;;;;5116827;28;20036;-76
2022/08/25 01:03:35;;;;;;;0.60;0.60;;;14.90;99.90;;;;;;5116998;28;20077;-74
2022/08/25 01:06:03;;;;;;;0.93;0.52;;;14.80;99.90;;;;;;5117429;28;20551;-75
2022/08/25 01:08:31;;;;;;;1.58;0.68;;;14.80;99.90;;;;;;5117305;28;20023;-75
2022/08/25 01:11:00;;;;;;;1.95;1.10;;;14.80;99.90;;;;;;5116630;28;20092;-75
2022/08/25 01:13:30;;;;;;;0.30;0.30;;;14.70;99.90;;;;;;5116681;28;20024;-75
2022/08/25 01:15:57;;;;;;;0.75;0.70;;;14.70;99.90;;;;;;5116742;28;20024;-74
2022/08/25 01:18:24;;;;;;;0.47;0.47;;;14.70;99.90;;;;;;5116602;28;20044;-75
2022/08/25 01:20:55;;;;;;;0.38;0.38;;;14.70;99.90;;;;;;5116686;28;20031;-75
2022/08/25 01:23:22;;;;;;;0.73;0.73;;;14.60;99.90;;;;;;5098311;28;20487;-74
2022/08/25 01:26:07;;;;;;;1.95;0.63;;;14.50;99.90;;;;;;5116662;28;20472;-73
2022/08/25 01:28:33;;;;;;;0.70;0.70;;;14.50;99.90;;;;;;5098335;28;20051;-75
2022/08/25 01:30:59;;;;;;;1.15;1.05;;;14.50;99.90;;;;;;5116431;28;20569;-76
2022/08/25 01:33:25;;;;;;;0.50;0.50;;;14.50;99.90;;;;;;5098283;28;20024;-74
2022/08/25 01:35:51;;;;;;;0.63;0.52;;;14.50;99.90;;;;;;5098112;28;20100;-75
2022/08/25 01:38:17;;;;;;;0.28;0.25;;;14.50;99.90;;;;;;5098145;28;20019;-77
2022/08/25 01:40:43;;;;;;;0.65;0.57;;;14.50;99.90;;;;;;5116338;28;20026;-75
2022/08/25 01:43:15;;;;;;;0.85;0.85;;;14.50;99.90;;;;;;5116390;28;20384;-77
2022/08/25 01:45:45;;;;;;;0.70;0.70;;;14.40;99.90;;;;;;5116616;28;20020;-77
2022/08/25 01:48:12;;;;;;;0.70;0.70;;;14.50;99.90;;;;;;5098170;28;20494;-74
2022/08/25 01:50:38;;;;;;;3.25;1.00;;;14.50;99.90;;;;;;5116313;28;20558;-77
2022/08/25 01:53:27;;;;;;;2.50;0.60;;;14.50;99.90;;;;;;5116233;28;20030;-73
2022/08/25 01:56:00;;;;;;;0.60;0.60;;;14.50;99.90;;;;;;5115980;28;20041;-75
2022/08/25 01:58:34;;;;;;;0.65;0.52;;;14.50;99.90;;;;;;5116077;28;20027;-78
2022/08/25 02:01:04;;;;;;;0.57;0.57;;;14.40;99.90;;;;;;5115915;28;20396;-74
2022/08/25 02:03:30;;;;;;;1.85;0.60;;;14.40;99.90;;;;;;5115805;28;20102;-75
2022/08/25 02:05:57;;;;;;;1.63;1.10;;;14.30;99.90;;;;;;5115826;28;20102;-75
2022/08/25 02:08:23;;;;;;;0.85;0.50;;;14.30;99.90;;;;;;5115900;28;20495;-74
2022/08/25 02:10:52;;;;;;;0.50;0.50;;;14.30;99.90;;;;;;5115900;28;20080;-75
2022/08/25 02:13:19;;;;;;;0.40;0.40;;;14.30;99.90;;;;;;5115927;28;20027;-75
2022/08/25 02:15:49;;;;;;;2.05;0.77;;;14.30;99.90;;;;;;5115706;28;20020;-77
2022/08/25 02:18:15;;;;;;;0.75;0.75;;;14.30;99.90;;;;;;5115840;28;20376;-76
2022/08/25 02:20:41;;;;;;;0.70;0.70;;;14.30;99.90;;;;;;5115550;28;20020;-76
2022/08/25 02:23:07;;;;;;;0.40;0.40;;;14.30;99.90;;;;;;5115415;28;20442;-75
2022/08/25 02:25:33;;;;;;;3.53;1.30;;;14.30;99.90;;;;;;5115800;28;20541;-76
2022/08/25 02:27:59;;;;;;;3.03;0.80;;;14.30;99.90;;;;;;5115567;28;20024;-77
2022/08/25 02:30:26;;;;;;;0.60;0.47;;;14.20;99.90;;;;;;5097349;28;20031;-76
2022/08/25 02:32:51;;;;;;;2.67;0.82;;;14.30;99.90;;;;;;5115363;28;20472;-74
2022/08/25 02:35:17;;;;;;;1.35;0.90;;;14.20;99.90;;;;;;5115596;28;20076;-76
2022/08/25 02:37:43;;;;;;;0.70;0.68;;;14.20;99.90;;;;;;5115650;28;20053;-75
2022/08/25 02:40:09;;;;;;;0.63;0.63;;;14.10;99.90;;;;;;5115566;28;20028;-78
2022/08/25 02:42:35;;;;;;;0.93;0.70;;;14.10;99.90;;;;;;5115478;28;20445;-78
2022/08/25 02:45:01;;;;;;;1.67;1.05;;;14.10;99.90;;;;;;5115137;28;20046;-74
2022/08/25 02:47:28;;;;;;;0.95;0.90;;;14.10;99.90;;;;;;5115103;28;20032;-75
2022/08/25 02:49:54;;;;;;;1.45;0.82;;;14.10;99.90;;;;;;5115489;28;20034;-74
2022/08/25 02:52:20;;;;;;;1.80;1.00;;;14.10;99.90;;;;;;5115296;28;20015;-74
2022/08/25 02:54:45;;;;;;;2.35;1.42;;;14.10;99.90;;;;;;5115219;28;20433;-76
2022/08/25 02:57:11;;;;;;;0.77;0.75;;;14.10;99.90;;;;;;5115070;28;20435;-76
2022/08/25 02:59:38;;;;;;;0.68;0.63;;;14.10;99.90;;;;;;5115270;28;20023;-74
2022/08/25 03:02:04;;;;;;;0.68;0.68;;;14.10;99.90;;;;;;5114689;28;20511;-75
2022/08/25 03:04:30;;;;;;;1.63;0.85;;;14.00;99.90;;;;;;5114967;28;20051;-75
2022/08/25 03:06:56;;;;;;;0.45;0.45;;;14.00;99.90;;;;;;5114125;28;20498;-74
2022/08/25 03:09:22;;;;;;;0.65;0.65;;;13.90;99.90;;;;;;5114850;28;20037;-76
2022/08/25 03:11:48;;;;;;;1.60;0.60;;;13.80;99.90;;;;;;5114522;28;20020;-75
2022/08/25 03:14:14;;;;;;;0.73;0.73;;;13.80;99.90;;;;;;5114763;28;20140;-77
2022/08/25 03:16:41;;;;;;;1.70;1.10;;;13.70;99.90;;;;;;5114707;28;20027;-74
2022/08/25 03:19:07;;;;;;;0.70;0.70;;;13.60;99.90;;;;;;5114610;28;20353;-75
2022/08/25 03:21:32;;;;;;;3.70;0.80;;;13.60;99.90;;;;;;5114505;28;20027;-77
2022/08/25 03:23:59;;;;;;;1.13;1.00;;;13.50;99.90;;;;;;5114516;28;20026;-76
2022/08/25 03:29:10;;;;;;;4.07;0.95;;;13.60;99.90;;;;;;5114885;28;20469;-74
2022/08/25 03:31:37;;;;;;;0.52;0.50;;;13.70;99.90;;;;;;5114602;28;20019;-73
2022/08/25 03:34:04;;;;;;;1.13;0.60;;;13.70;99.90;;;;;;5114564;28;20077;-74
2022/08/25 03:36:30;;;;;;;0.80;0.63;;;13.70;99.90;;;;;;5114503;28;20055;-77
2022/08/25 03:38:56;;;;;;;0.38;0.38;;;13.60;99.90;;;;;;5114288;28;20055;-76
2022/08/25 03:41:25;;;;;;;0.52;0.52;;;13.60;99.90;;;;;;5114045;28;20042;-76
2022/08/25 03:43:52;;;;;;;1.25;1.00;;;13.50;99.90;;;;;;5114268;28;20411;-74
2022/08/25 03:46:24;;;;;;;0.70;0.63;;;13.50;99.90;;;;;;5114246;28;20023;-77
2022/08/25 03:48:51;;;;;;;1.77;0.65;;;13.50;99.90;;;;;;5114165;28;20030;-76
2022/08/25 03:51:29;;;;;;;0.40;0.40;;;13.50;99.90;;;;;;5114188;28;20020;-75
2022/08/25 03:53:57;;;;;;;0.57;0.57;;;13.50;99.90;;;;;;5114170;28;20495;-75
2022/08/25 03:56:22;;;;;;;0.50;0.50;;;13.50;99.90;;;;;;5113998;28;20023;-76
2022/08/25 03:58:48;;;;;;;0.63;0.63;;;13.40;99.90;;;;;;5095829;28;20080;-75
2022/08/25 04:01:15;;;;;;;0.80;0.80;;;13.50;99.90;;;;;;5113970;28;20076;-76
2022/08/25 04:03:41;;;;;;;0.93;0.93;;;13.50;99.90;;;;;;5095702;28;20040;-74
2022/08/25 04:06:07;;;;;;;2.67;0.80;;;13.50;99.90;;;;;;5095662;28;20027;-76
2022/08/25 04:08:33;;;;;;;1.67;0.80;;;13.40;99.90;;;;;;5114002;28;20208;-77
2022/08/25 04:11:12;;;;;;;0.55;0.55;;;13.30;99.90;;;;;;5113931;28;20024;-75
2022/08/25 04:13:39;;;;;;;0.82;0.82;;;13.30;99.90;;;;;;5114032;28;20016;-75
2022/08/25 04:16:12;;;;;;;0.70;0.70;;;13.30;99.90;;;;;;5113783;28;20028;-75
2022/08/25 04:18:42;;;;;;;0.38;0.38;;;13.30;99.90;;;;;;5115865;28;20016;-77
2022/08/25 04:21:09;;;;;;;1.92;1.77;;;13.20;99.90;;;;;;5118197;28;20027;-73
2022/08/25 04:23:36;;;;;;;0.60;0.60;;;13.30;99.90;;;;;;5118094;28;20027;-74
2022/08/25 04:26:10;;;;;;;2.85;0.85;;;13.20;99.90;;;;;;5118308;28;20016;-76
2022/08/25 04:28:35;;;;;;;0.70;0.60;;;13.20;99.90;;;;;;5118310;28;20472;-77
2022/08/25 04:31:04;;;;;;;0.80;0.68;;;13.20;99.90;;;;;;5117888;28;20024;-74
2022/08/25 04:33:29;;;;;;;0.30;0.30;;;13.20;99.90;;;;;;5117866;28;20069;-76
2022/08/25 04:35:55;;;;;;;0.50;0.50;;;13.10;99.90;;;;;;5117973;28;20071;-76
2022/08/25 04:38:21;;;;;;;0.85;0.50;;;13.10;99.90;;;;;;5099587;28;20051;-75
2022/08/25 04:40:55;;;;;;;2.95;1.50;;;13.00;99.90;;;;;;5117752;28;20016;-77
2022/08/25 04:43:21;;;;;;;4.03;1.55;;;13.10;99.90;;;;;;5117722;28;20062;-76
2022/08/25 04:45:47;;;;;;;3.45;1.05;;;13.10;99.90;;;;;;5117694;28;20055;-75
2022/08/25 04:48:12;;;;;;;1.05;0.82;;;13.10;99.90;;;;;;5117603;28;20024;-75
2022/08/25 04:50:39;;;;;;;1.08;1.08;;;13.10;99.90;;;;;;5117540;28;20027;-77
2022/08/25 04:53:04;;;;;;;2.58;0.75;;;13.10;99.90;;;;;;5117440;28;20012;-76
2022/08/25 04:55:30;;;;;;;0.45;0.43;;;13.10;99.90;;;;;;5117356;28;20149;-76
2022/08/25 04:57:56;;;;;;;0.70;0.70;;;13.00;99.90;;;;;;5099189;28;20057;-75
2022/08/25 05:00:21;;;;;;;1.85;0.82;;;13.00;99.90;;;;;;5099304;28;20032;-77
2022/08/25 05:02:48;;;;;;;0.47;0.43;;;13.00;99.90;;;;;;5117205;28;20044;-74
2022/08/25 05:05:14;;;;;;;0.47;0.47;;;13.00;99.90;;;;;;5117365;28;20047;-74
2022/08/25 05:07:39;;;;;;;0.98;0.52;;;13.00;99.90;;;;;;5117157;28;20028;-76
2022/08/25 05:10:08;;;;;;;0.45;0.45;;;13.00;99.90;;;;;;5117077;28;20094;-74
2022/08/25 05:12:35;;;;;;;0.80;0.73;;;13.20;99.90;;;;;;5098826;28;20030;-77
2022/08/25 05:15:48;;;;;;;0.60;0.60;;;13.30;99.90;;;;;;5117021;28;20371;-74
2022/08/25 05:17:46;;;;;;;0.57;0.57;;;13.30;99.90;;;;;;5116957;28;20421;-74
2022/08/25 05:20:11;;;;;;;0.90;0.90;;;13.40;99.90;;;;;;5117052;28;20022;-75
2022/08/25 05:22:37;;;;;;;0.57;0.57;;;13.40;99.90;;;;;;5116895;28;20023;-76
2022/08/25 05:25:03;;;;;;;1.38;1.30;;;13.50;99.90;;;;;;5116488;28;20028;-75
2022/08/25 05:27:29;;;;;;;0.82;0.82;;;13.60;99.90;;;;;;5098525;28;20028;-75
2022/08/25 05:29:54;;;;;;;3.83;1.65;;;13.70;99.90;;;;;;5097616;28;20024;-74
2022/08/25 05:32:20;;;;;;;1.10;1.08;;;13.80;99.90;;;;;;5116602;28;20020;-76
2022/08/25 05:34:45;;;;;;;1.00;1.00;;;13.90;99.90;;;;;;5116452;28;20023;-75
2022/08/25 05:37:11;;;;;;;4.05;1.13;;;14.00;99.90;;;;;;5116535;28;20024;-74
2022/08/25 05:39:37;;;;;;;1.00;1.00;;;14.00;99.90;;;;;;5116366;28;20023;-75
2022/08/25 05:42:02;;;;;;;1.55;1.45;;;14.00;99.90;;;;;;5098032;28;20376;-74
2022/08/25 05:44:28;;;;;;;0.88;0.88;;;14.10;99.90;;;;;;5116203;28;20032;-74
2022/08/25 05:46:54;;;;;;;0.63;0.63;;;14.20;99.90;;;;;;5116215;28;20392;-74
2022/08/25 05:49:19;;;;;;;0.52;0.52;;;14.30;99.90;;;;;;5116240;28;20023;-75
2022/08/25 05:51:45;;;;;;;2.20;0.90;;;14.40;99.90;;;;;;5116085;28;20024;-76
2022/08/25 05:54:11;;;;;;;1.25;1.25;;;14.50;99.90;;;;;;5116166;28;20038;-75
2022/08/25 05:56:36;;;;;;;0.70;0.70;;;14.60;99.90;;;;;;5097786;28;20027;-76
2022/08/25 05:59:02;;;;;;;1.42;1.00;;;14.70;99.90;;;;;;5097735;28;20024;-75
2022/08/25 06:04:14;;;;;;;0.75;0.75;;;15.00;99.90;;;;;;5116313;28;20046;-76
2022/08/25 06:06:40;;;;;;;0.90;0.90;;;15.10;99.90;;;;;;5115654;28;20035;-77
2022/08/25 06:09:08;;;;;;;3.30;1.08;;;15.20;99.90;;;;;;5116504;28;20028;-74
2022/08/25 06:11:35;;;;;;;0.63;0.63;;;15.30;99.90;;;;;;5105760;28;20023;-75
2022/08/25 06:14:00;;;;;;;0.98;0.98;;;15.40;99.90;;;;;;5121816;28;20027;-78
2022/08/25 06:16:26;;;;;;;1.35;1.15;;;15.50;99.90;;;;;;5119279;28;20024;-75
2022/08/25 06:18:54;;;;;;;1.80;1.58;;;;;;;;;;5115768;28;20425;-75
2022/08/25 06:21:19;;;;;;;0.90;0.90;;;15.70;99.90;;;;;;5115344;28;20542;-75
2022/08/25 06:23:45;;;;;;;1.83;1.73;;;15.80;99.90;;;;;;5097517;28;20122;-74
2022/08/25 06:26:12;;;;;;;0.98;0.98;;;16.00;99.90;;;;;;5097124;28;20456;-75
2022/08/25 06:28:38;;;;;;;3.50;2.63;;;16.10;99.90;;;;;;5115506;28;20035;-74
2022/08/25 06:31:04;;;;;;;2.03;1.27;;;16.30;99.90;;;;;;5115319;28;20076;-76
2022/08/25 06:33:30;;;;;;;1.13;0.85;;;16.40;99.90;;;;;;5097139;28;20035;-76
2022/08/25 06:35:57;;;;;;;1.42;0.80;;;16.50;99.90;;;;;;5097016;28;20024;-79
2022/08/25 06:38:23;;;;;;;1.42;0.88;;;16.40;99.90;;;;;;5096670;28;20027;-76
2022/08/25 06:40:51;;;;;;;1.92;1.63;;;16.80;99.90;;;;;;5114629;28;20490;-79
2022/08/25 06:43:20;;;;;;;2.42;1.65;;;17.00;99.90;;;;;;5114209;28;20038;-79
2022/08/25 06:45:47;;;;;;;1.95;1.00;;;17.10;99.90;;;;;;5114894;28;20020;-73
2022/08/25 06:48:13;;;;;;;1.55;1.42;;;17.30;99.90;;;;;;5115341;28;20108;-76
2022/08/25 06:50:40;;;;;;;16.98;2.53;;;17.50;99.90;;;;;;5115061;28;20023;-76
2022/08/25 06:53:06;;;;;;;2.88;1.75;;;17.60;99.90;;;;;;5115108;28;20016;-76
2022/08/25 06:55:33;;;;;;;1.10;1.05;;;17.80;99.90;;;;;;5096413;28;20027;-77
2022/08/25 06:57:59;;;;;;;0.52;0.52;;;17.90;99.90;;;;;;5096418;28;20090;-76
2022/08/25 07:00:25;;;;;;;0.70;0.70;;;18.10;99.90;;;;;;5096497;28;20062;-76
2022/08/25 07:02:51;;;;;;;0.82;0.82;;;18.30;99.90;;;;;;5114303;28;20054;-75
2022/08/25 07:05:16;;;;;;;1.58;1.48;;;18.40;99.90;;;;;;5115080;28;20023;-75
2022/08/25 07:07:45;;;;;;;1.08;0.98;;;18.60;99.90;;;;;;5114782;28;20023;-74
2022/08/25 07:10:11;;;;;;;2.10;1.00;;;18.70;99.90;;;;;;5114511;28;20072;-75
2022/08/25 07:12:38;;;;;;;0.85;0.80;;;18.80;99.90;;;;;;5114650;28;20076;-77
2022/08/25 07:15:05;;;;;;;0.60;0.60;;;18.90;99.90;;;;;;5114356;28;20059;-76
2022/08/25 07:17:30;;;;;;;1.02;1.02;;;19.10;99.90;;;;;;5114423;28;20051;-76
2022/08/25 07:19:56;;;;;;;2.28;1.13;;;19.20;99.90;;;;;;5114369;28;20545;-77
2022/08/25 07:22:22;;;;;;;0.95;0.93;;;19.20;99.90;;;;;;5114337;28;20031;-77
2022/08/25 07:24:48;;;;;;;1.98;0.60;;;19.30;99.90;;;;;;5114330;28;20038;-76
2022/08/25 07:27:14;;;;;;;0.52;0.50;;;19.40;99.90;;;;;;5114291;28;20460;-76
2022/08/25 07:29:40;;;;;;;3.45;1.75;;;19.50;99.90;;;;;;5114290;28;20489;-75
2022/08/25 07:32:05;;;;;;;0.50;0.50;;;19.60;99.90;;;;;;5114141;28;20055;-75
2022/08/25 07:37:15;;;;;;;1.75;0.93;;;20.00;99.90;;;;;;5114369;28;20511;-75
2022/08/25 07:39:41;;;;;;;0.63;0.63;;;20.10;99.90;;;;;;5095845;28;20035;-74
2022/08/25 07:42:08;;;;;;;0.60;0.60;;;20.20;99.90;;;;;;5114142;28;20377;-76
2022/08/25 07:44:34;;;;;;;0.28;0.28;;;20.30;99.90;;;;;;5114039;28;20020;-75
2022/08/25 07:47:00;;;;;;;0.38;0.38;;;20.40;99.90;;;;;;5095986;28;20168;-75
2022/08/25 07:49:26;;;;;;;0.52;0.40;;;20.50;99.90;;;;;;5113843;28;20024;-75
2022/08/25 07:51:53;;;;;;;1.08;0.77;;;20.70;99.90;;;;;;5113778;28;20015;-75
2022/08/25 07:54:23;;;;;;;11.93;1.50;;;20.90;99.90;;;;;;5113426;28;20085;-75
2022/08/25 07:56:48;;;;;;;0.88;0.47;;;21.20;99.90;;;;;;5113893;28;20464;-77
2022/08/25 07:59:14;;;;;;;1.40;1.15;;;21.30;99.90;;;;;;5113767;28;20040;-78
2022/08/25 08:01:40;;;;;;;0.60;0.40;;;21.50;99.90;;;;;;5113483;28;20043;-75
2022/08/25 08:04:07;;;;;;;0.50;0.50;;;21.50;99.90;;;;;;5113670;28;20116;-76
2022/08/25 08:06:32;;;;;;;1.45;0.52;;;21.60;99.90;;;;;;5095393;28;20023;-75
2022/08/25 08:08:59;;;;;;;0.45;0.35;;;21.70;99.90;;;;;;5113569;28;20028;-76
2022/08/25 08:11:28;;;;;;;0.32;0.32;;;21.80;99.90;;;;;;5095173;28;20030;-78
2022/08/25 08:13:55;;;;;;;0.40;0.40;;;21.90;99.90;;;;;;5113702;28;20055;-77
2022/08/25 08:16:23;;;;;;;4.28;0.90;;;22.00;99.90;;;;;;5113586;28;20458;-76
2022/08/25 08:18:49;;;;;;;0.38;0.38;;;22.20;99.90;;;;;;5113592;28;20055;-77
2022/08/25 08:21:21;;;;;;;0.85;0.40;;;22.50;99.90;;;;;;5114045;28;20074;-78
2022/08/25 08:23:48;;;;;;;0.52;0.50;;;23.20;99.90;;;;;;5113488;28;20043;-78
2022/08/25 08:26:14;;;;;;;1.85;0.77;;;24.60;99.90;;;;;;5095246;28;20030;-76
2022/08/25 08:28:40;;;;;;;0.30;0.30;;;26.20;99.90;;;;;;5113501;28;20114;-79
2022/08/25 08:31:06;;;;;;;0.28;0.28;;;27.60;96.80;;;;;;5095264;28;20050;-76
2022/08/25 08:33:33;;;;;;;0.20;0.20;;;28.40;90.00;;;;;;5113375;28;20028;-74
2022/08/25 08:36:01;;;;;;;1.55;0.47;;;28.90;80.30;;;;;;5113677;28;20023;-74
2022/08/25 08:38:27;;;;;;;0.90;0.90;;;29.20;75.20;;;;;;5113492;28;20597;-74
2022/08/25 08:43:58;;;;;;;0.32;0.25;;;30.00;70.10;;;;;;5113161;28;20073;-74
2022/08/25 08:46:33;;;;;;;1.42;0.40;;;30.50;66.20;;;;;;5113030;28;20016;-74
2022/08/25 08:49:10;;;;;;;0.45;0.45;;;30.90;64.80;;;;;;5113333;28;20027;-75
2022/08/25 08:51:47;;;;;;;0.60;0.50;;;30.50;64.30;;;;;;5113212;28;20070;-79
2022/08/25 08:54:19;;;;;;;0.38;0.38;;;29.50;64.90;;;;;;5113354;28;20468;-76
2022/08/25 08:56:49;;;;;;;7.63;0.73;;;29.00;68.20;;;;;;5113362;28;20019;-74
2022/08/25 08:59:30;;;;;;;0.30;0.30;;;29.40;67.70;;;;;;5113210;28;20364;-75
2022/08/25 09:01:59;;;;;;;0.65;0.50;;;29.60;66.60;;;;;;5094873;28;20122;-74
2022/08/25 09:04:42;;;;;;;0.65;0.47;;;29.10;67.90;;;;;;5113145;28;20527;-80
2022/08/25 09:07:16;;;;;;;0.82;0.82;;;29.20;67.60;;;;;;5098720;28;20030;-74
2022/08/25 09:09:42;;;;;;;1.52;0.40;;;29.50;67.30;;;;;;5116826;28;20016;-75
2022/08/25 09:12:21;;;;;;;0.82;0.60;;;29.60;65.40;;;;;;5099092;28;20161;-74
2022/08/25 09:15:01;;;;;;;0.80;0.37;;;29.40;66.90;;;;;;5116869;28;20016;-74
2022/08/25 09:18:04;;;;;;;0.40;0.28;;;29.30;67.00;;;;;;5116742;28;20257;-79
2022/08/25 09:21:07;;;;;;;1.13;0.60;;;28.80;67.60;;;;;;5098372;28;20027;-76
2022/08/25 09:23:54;;;;;;;0.60;0.60;;;28.10;67.80;;;;;;5116568;28;20077;-75
2022/08/25 09:26:36;;;;;;;1.08;0.43;;;28.20;69.30;;;;;;5098339;28;20502;-75
2022/08/25 09:29:08;;;;;;;0.60;0.32;;;28.40;70.50;;;;;;5116557;28;20120;-79
2022/08/25 09:31:37;;;;;;;0.10;0.10;;;28.70;67.50;;;;;;5116641;28;20380;-78
2022/08/25 09:34:16;;;;;;;0.32;0.28;;;29.10;69.10;;;;;;5098377;28;20057;-79
2022/08/25 09:36:41;;;;;;;0.30;0.30;;;28.90;67.40;;;;;;5098303;28;20110;-75
2022/08/25 09:39:07;;;;;;;0.60;0.45;;;28.70;66.80;;;;;;5116152;28;20074;-75
2022/08/25 09:41:44;;;;;;;0.15;0.15;;;28.30;69.10;;;;;;5115975;28;20106;-74
2022/08/25 09:44:29;;;;;;;0.22;0.22;;;28.50;68.90;;;;;;5116260;28;20035;-80
2022/08/25 09:47:01;;;;;;;0.60;0.60;;;28.80;67.20;;;;;;5098435;28;20380;-79
2022/08/25 09:49:37;;;;;;;0.32;0.32;;;28.80;67.80;;;;;;5116240;28;20537;-79
2022/08/25 09:52:25;;;;;;;0.95;0.50;;;28.70;68.10;;;;;;5098113;28;20031;-78
2022/08/25 09:54:52;;;;;;;0.47;0.47;;;28.90;67.60;;;;;;5098613;28;20034;-78
2022/08/25 09:57:43;;;;;;;0.60;0.60;;;28.90;70.00;;;;;;5097688;28;20024;-72
2022/08/25 10:00:22;;;;;;;0.77;0.77;;;28.40;68.00;;;;;;5116003;28;20084;-73
2022/08/25 10:03:14;;;;;;;1.77;0.35;;;28.10;67.00;;;;;;5097470;28;20073;-74
2022/08/25 10:05:56;;;;;;;0.63;0.55;;;28.00;67.90;;;;;;5116059;28;20031;-77
2022/08/25 10:08:31;;;;;;;0.57;0.30;;;27.50;68.20;;;;;;5115912;28;20023;-72
2022/08/25 10:10:58;;;;;;;0.52;0.52;;;27.40;68.90;;;;;;5116159;28;20113;-72
2022/08/25 10:14:01;;;;;;;1.00;0.50;;;27.60;70.30;;;;;;5115657;28;20483;-74
2022/08/25 10:16:31;;;;;;;0.35;0.35;;;27.90;69.10;;;;;;5072507;28;20055;-74
2022/08/25 10:19:13;;;;;;;0.40;0.40;;;28.10;68.70;;;;;;5115625;28;20019;-72
2022/08/25 10:21:41;;;;;;;0.40;0.40;;;28.30;67.60;;;;;;5115600;28;20111;-72
2022/08/25 10:24:11;;;;;;;1.55;0.85;;;27.80;68.80;;;;;;5115609;28;20391;-79
2022/08/25 10:26:47;;;;;;;0.15;0.15;;;28.10;69.20;;;;;;5115568;28;20084;-72
2022/08/25 10:29:23;;;;;;;0.20;0.20;;;28.50;66.20;;;;;;5115854;28;20024;-72
2022/08/25 10:32:11;;;;;;;0.43;0.32;;;28.50;64.10;;;;;;5097124;28;20020;-78
2022/08/25 10:34:43;;;;;;;0.40;0.40;;;28.40;66.10;;;;;;5115348;28;20038;-77
2022/08/25 10:37:09;;;;;;;0.52;0.52;;;28.60;65.60;;;;;;5115349;28;20069;-72
2022/08/25 10:39:41;;;;;;;0.40;0.40;;;28.80;62.10;;;;;;5115208;28;20077;-72
2022/08/25 10:42:13;;;;;;;0.30;0.30;;;28.80;62.80;;;;;;5115147;28;20027;-76
2022/08/25 10:47:50;;;;;;;0.45;0.45;;;28.60;61.30;;;;;;5115221;28;20503;-72
2022/08/25 10:50:52;;;;;;;0.35;0.35;;;28.60;62.20;;;;;;5115166;28;20088;-76
2022/08/25 10:53:39;;;;;;;1.10;0.65;;;28.70;60.80;;;;;;5114819;28;20020;-74
2022/08/25 10:56:20;;;;;;;2.70;1.10;;;29.00;61.60;;;;;;5114793;28;20015;-79
2022/08/25 10:59:25;;;;;;;0.60;0.60;;;29.60;59.50;;;;;;5114896;28;20020;-72
2022/08/25 11:02:25;;;;;;;0.30;0.30;;;30.00;57.90;;;;;;5114521;28;20047;-73
2022/08/25 11:05:19;;;;;;;0.90;0.88;;;30.00;58.00;;;;;;5114663;28;20070;-72
2022/08/25 11:07:50;;;;;;;0.50;0.50;;;30.50;57.90;;;;;;5060868;28;20031;-73
2022/08/25 11:10:24;;;;;;;0.40;0.40;;;30.10;57.50;;;;;;5114484;28;20476;-73
2022/08/25 11:12:58;;;;;;;0.35;0.35;;;30.30;58.00;;;;;;5096215;28;20504;-72
2022/08/25 11:16:12;;;;;;;0.30;0.30;;;30.50;58.20;;;;;;5114601;28;20511;-79
2022/08/25 11:19:04;;;;;;;1.30;0.40;;;30.40;58.00;;;;;;5093008;28;20035;-72
2022/08/25 11:21:57;;;;;;;0.47;0.47;;;30.50;57.70;;;;;;5095710;28;20031;-72
2022/08/25 11:24:31;;;;;;;0.35;0.35;;;31.10;57.60;;;;;;5114316;28;20055;-73
2022/08/25 11:26:58;;;;;;;0.43;0.43;;;31.40;56.70;;;;;;5114192;28;20024;-73
2022/08/25 11:29:34;;;;;;;4.20;1.83;;;31.90;57.50;;;;;;5113597;28;20023;-72
2022/08/25 11:32:00;;;;;;;0.40;0.40;;;32.40;55.60;;;;;;5114078;28;20389;-73
2022/08/25 11:34:29;;;;;;;0.70;0.70;;;32.60;54.10;;;;;;5114108;28;20349;-78
2022/08/25 11:37:21;;;;;;;1.08;0.40;;;32.80;56.00;;;;;;5113986;28;20056;-73
2022/08/25 11:39:59;;;;;;;0.40;0.40;;;33.10;53.40;;;;;;5114161;28;20020;-79
2022/08/25 11:42:50;;;;;;;0.35;0.30;;;33.60;51.40;;;;;;5114049;28;20038;-76
2022/08/25 11:45:36;;;;;;;0.43;0.30;;;34.00;51.20;;;;;;5095754;28;20097;-73
2022/08/25 11:48:28;;;;;;;0.47;0.47;;;34.30;50.90;;;;;;5113880;28;20019;-74
2022/08/25 11:51:07;;;;;;;0.38;0.38;;;33.70;50.40;;;;;;5084648;28;20553;-73
2022/08/25 11:53:42;;;;;;;0.40;0.40;;;33.40;52.60;;;;;;5113965;28;20059;-74
2022/08/25 11:56:11;;;;;;;0.50;0.50;;;33.10;51.90;;;;;;5113875;28;20092;-79
2022/08/25 11:58:47;;;;;;;0.70;0.57;;;33.20;51.80;;;;;;5096330;28;20345;-73
2022/08/25 12:01:34;;;;;;;0.30;0.30;;;33.80;51.20;;;;;;5113802;28;20031;-77
2022/08/25 12:04:40;;;;;;;1.25;1.02;;;34.20;49.50;;;;;;5095469;28;20076;-73
2022/08/25 12:07:05;;;;;;;0.47;0.47;;;34.90;49.50;;;;;;5113764;28;20048;-74
2022/08/25 12:09:54;;;;;;;0.73;0.40;;;35.70;49.70;;;;;;5113858;28;20058;-73
2022/08/25 12:12:35;;;;;;;0.32;0.32;;;36.50;48.20;;;;;;5095439;28;20020;-73
2022/08/25 12:15:20;;;;;;;0.45;0.40;;;37.10;46.90;;;;;;5113737;28;20028;-79
2022/08/25 12:18:12;;;;;;;2.05;0.68;;;36.90;44.70;;;;;;5113360;28;20027;-75
2022/08/25 12:20:53;;;;;;;0.50;0.20;;;36.30;47.40;;;;;;5113667;28;20113;-73
2022/08/25 12:23:36;;;;;;;0.45;0.40;;;36.30;45.40;;;;;;5113394;28;20031;-76
2022/08/25 12:26:30;;;;;;;0.30;0.30;;;36.00;46.60;;;;;;5095503;28;20133;-73
2022/08/25 12:29:15;;;;;;;0.40;0.40;;;36.10;46.70;;;;;;5113512;28;20100;-80
2022/08/25 12:32:05;;;;;;;1.05;0.50;;;36.30;47.10;;;;;;5113565;28;20087;-77
2022/08/25 12:34:57;;;;;;;0.38;0.38;;;35.80;46.10;;;;;;5113652;28;20026;-74
2022/08/25 12:37:24;;;;;;;0.30;0.30;;;35.00;46.20;;;;;;5085833;28;20031;-74
2022/08/25 12:39:50;;;;;;;0.40;0.40;;;35.20;46.60;;;;;;5115365;28;20036;-72
2022/08/25 12:42:36;;;;;;;1.73;0.85;;;34.50;47.40;;;;;;5117338;28;20028;-78
2022/08/25 12:45:12;;;;;;;1.50;0.43;;;34.40;47.80;;;;;;5117834;28;20063;-74
2022/08/25 12:47:41;;;;;;;8.52;0.98;;;35.10;46.20;;;;;;5117417;28;20048;-75
2022/08/25 12:50:39;;;;;;;0.30;0.30;;;34.80;45.80;;;;;;5099140;28;20384;-76
2022/08/25 12:53:32;;;;;;;0.60;0.60;;;35.20;44.50;;;;;;5117303;28;20027;-74
2022/08/25 12:56:22;;;;;;;0.80;0.40;;;36.30;45.20;;;;;;5119675;28;20073;-75
2022/08/25 12:58:53;;;;;;;0.40;0.40;;;36.50;43.90;;;;;;5098874;28;20101;-80
2022/08/25 13:01:18;;;;;;;0.40;0.35;;;36.10;43.30;;;;;;5117169;28;20388;-73
2022/08/25 13:04:04;;;;;;;0.30;0.30;;;36.30;43.40;;;;;;5116988;28;20138;-73
2022/08/25 13:07:08;;;;;;;1.20;0.60;;;36.50;44.10;;;;;;5102463;28;20036;-73
2022/08/25 13:10:11;;;;;;;0.30;0.30;;;35.50;42.80;;;;;;5061365;28;20216;-74
2022/08/25 13:13:05;;;;;;;0.82;0.40;;;35.90;43.20;;;;;;5117060;28;20425;-78
2022/08/25 13:15:39;;;;;;;0.43;0.40;;;36.30;42.70;;;;;;5098695;28;20023;-76
2022/08/25 13:18:17;;;;;;;0.30;0.30;;;36.40;43.10;;;;;;5116854;28;20023;-74
2022/08/25 13:20:43;;;;;;;0.68;0.52;;;37.20;42.50;;;;;;5098508;28;20510;-75
2022/08/25 13:23:09;;;;;;;0.90;0.65;;;37.60;42.70;;;;;;5116680;28;20040;-77
2022/08/25 13:25:45;;;;;;;0.17;0.17;;;37.70;41.30;;;;;;5098516;28;20490;-75